Terminal Aerodrome Forecast
Issued by NWS

Home | Current Version | Previous Version | Graphics & Text | Print | Product List | Glossary On
Versions: 1 2 3 4 5 6 7 8 9 10 11 12 13 14 15 16 17 18
000
FTUS43 KGRB 211959 AAA
TAFATW
TAF AMD
KATW 211959Z 2120/2218 08005KT 5SM -SHRA BR OVC008
     FM220200 07005KT 4SM BR OVC006
     FM220800 03003KT 2SM BR OVC005
     FM221500 01006KT P6SM BKN010=

USA.gov is the U.S. government's official web portal to all federal, state and local government web resources and services.